Time;durP1;ratioP1;P1;durP2;ratioP2;P2;SDS_P1;SDS_P2;PMS_P1;PMS_P2;Temp;Humidity;BMP_temperature;BMP_pressure;BME280_temperature;BME280_humidity;BME280_pressure;Samples;Min_cycle;Max_cycle;Signal;HPM_P1;HPM_P2
2022/09/15 00:00:11;;;;;;;;;4.67;4.67;;;;;21.71;83.66;100299.00;5020848;28;45357;-74
2022/09/15 00:02:36;;;;;;;;;3.00;3.00;;;;;21.59;83.85;100299.19;5016363;28;45488;-74
2022/09/15 00:05:03;;;;;;;;;4.33;4.33;;;;;21.65;84.24;100306.25;5016178;28;45401;-74
2022/09/15 00:07:28;;;;;;;;;4.33;4.00;;;;;21.64;84.02;100306.53;5016152;28;45383;-74
2022/09/15 00:09:53;;;;;;;;;1.33;1.33;;;;;21.61;83.82;100307.84;5023361;28;45448;-74
2022/09/15 00:12:19;;;;;;;;;2.00;2.00;;;;;21.59;84.20;100304.59;5032127;28;46162;-73
2022/09/15 00:14:44;;;;;;;;;5.33;3.67;;;;;21.61;83.91;100307.84;5026087;28;45393;-74
2022/09/15 00:17:10;;;;;;;;;3.33;3.33;;;;;21.62;83.63;100311.34;5027145;28;45384;-74
2022/09/15 00:19:35;;;;;;;;;3.67;3.67;;;;;21.52;83.23;100304.00;5016236;28;45371;-75
2022/09/15 00:22:00;;;;;;;;;4.33;4.33;;;;;21.50;83.65;100298.84;5015860;28;45412;-75
2022/09/15 00:24:26;;;;;;;;;4.00;4.00;;;;;21.54;83.57;100302.66;5033883;28;48042;-74
2022/09/15 00:26:51;;;;;;;;;3.00;3.00;;;;;21.44;84.01;100302.59;5024359;28;45352;-75
2022/09/15 00:29:16;;;;;;;;;6.00;5.00;;;;;21.44;84.79;100310.69;5032173;28;45211;-74
2022/09/15 00:31:42;;;;;;;;;6.00;6.00;;;;;21.40;84.31;100312.28;5051172;28;47423;-74
2022/09/15 00:34:11;;;;;;;;;7.67;7.67;;;;;21.41;84.81;100320.13;5032785;28;47333;-75
2022/09/15 00:36:37;;;;;;;;;8.33;6.33;;;;;21.36;84.57;100317.38;5014372;28;46294;-74
2022/09/15 00:39:02;;;;;;;;;8.33;7.33;;;;;21.38;84.71;100325.22;5015392;28;45495;-74
2022/09/15 00:41:28;;;;;;;;;10.00;9.00;;;;;21.33;84.64;100315.19;5015532;28;45504;-74
2022/09/15 00:43:57;;;;;;;;;9.00;9.00;;;;;21.36;85.29;100324.66;5015686;28;45402;-75
2022/09/15 00:46:24;;;;;;;;;9.33;9.33;;;;;21.25;85.58;100323.78;5015691;28;45420;-75
2022/09/15 00:49:13;;;;;;;;;7.00;7.00;;;;;21.21;85.59;100325.34;5024884;28;45403;-75
2022/09/15 00:51:48;;;;;;;;;8.00;7.67;;;;;21.22;85.68;100335.88;5029279;28;46397;-74
2022/09/15 00:54:22;;;;;;;;;8.00;7.00;;;;;21.09;85.96;100330.91;5015339;28;45473;-75
2022/09/15 00:56:51;;;;;;;;;9.67;8.00;;;;;20.97;86.37;100331.88;5015298;28;45367;-75
2022/09/15 00:59:21;;;;;;;;;8.33;8.00;;;;;21.01;86.97;100343.00;5014413;28;45213;-74
2022/09/15 01:01:50;;;;;;;;;10.67;8.67;;;;;20.96;86.68;100340.22;5014873;28;45435;-74
2022/09/15 01:04:16;;;;;;;;;9.00;8.00;;;;;20.93;87.13;100333.47;5015318;28;45709;-74
2022/09/15 01:06:49;;;;;;;;;10.33;9.33;;;;;21.02;86.98;100355.44;5024396;28;45337;-75
2022/09/15 01:09:25;;;;;;;;;7.33;7.33;;;;;21.06;86.90;100360.06;5015247;28;45498;-74
2022/09/15 01:11:50;;;;;;;;;11.33;10.00;;;;;21.00;87.10;100350.28;5027694;28;46402;-75
2022/09/15 01:14:15;;;;;;;;;10.67;10.33;;;;;20.99;87.13;100348.66;5014847;28;46046;-75
2022/09/15 01:16:54;;;;;;;;;10.33;10.33;;;;;20.99;86.62;100361.34;5023921;28;46306;-75
2022/09/15 01:19:40;;;;;;;;;8.33;8.33;;;;;20.96;87.15;100351.03;5015540;28;45285;-75
2022/09/15 01:22:39;;;;;;;;;5.33;4.67;;;;;20.95;86.87;100358.31;5014709;28;45221;-75
2022/09/15 01:25:34;;;;;;;;;10.33;10.33;;;;;20.89;87.12;100351.22;5025611;28;47446;-75
2022/09/15 01:28:21;;;;;;;;;19.33;16.00;;;;;20.83;87.42;100363.03;5031267;28;45442;-75
2022/09/15 01:31:17;;;;;;;;;13.00;13.00;;;;;20.71;87.20;100355.84;5018111;28;45334;-75
2022/09/15 01:33:57;;;;;;;;;15.00;15.00;;;;;20.59;86.38;100360.59;5018171;28;45426;-74
2022/09/15 01:36:45;;;;;;;;;17.00;16.67;;;;;20.51;86.94;100362.66;5017721;28;45685;-75
2022/09/15 01:39:20;;;;;;;;;13.00;13.00;;;;;20.42;87.20;100364.94;5009991;28;45533;-74
2022/09/15 01:41:52;;;;;;;;;12.67;12.00;;;;;20.36;86.66;100363.28;5018344;28;45334;-75
2022/09/15 01:44:55;;;;;;;;;19.00;18.00;;;;;20.25;86.91;100365.00;5017788;28;45529;-75
2022/09/15 01:47:23;;;;;;;;;13.67;11.67;;;;;20.28;87.41;100375.31;5071308;28;45751;-76
2022/09/15 01:49:58;;;;;;;;;18.67;14.33;;;;;20.28;87.51;100379.88;5040386;28;45443;-75
2022/09/15 01:52:24;;;;;;;;;14.33;13.67;;;;;20.22;87.72;100365.50;5030256;28;45482;-74
2022/09/15 01:54:56;;;;;;;;;18.00;16.67;;;;;20.25;87.55;100375.81;5030280;28;46907;-74
2022/09/15 01:57:21;;;;;;;;;14.00;13.67;;;;;20.23;87.78;100380.63;5031235;28;48182;-75
2022/09/15 01:59:49;;;;;;;;;15.33;15.00;;;;;20.22;87.61;100370.91;5017770;28;45310;-75
2022/09/15 02:02:24;;;;;;;;;13.33;12.33;;;;;20.23;87.21;100375.22;5035564;28;45484;-74
2022/09/15 02:04:55;;;;;;;;;16.00;15.00;;;;;20.18;87.33;100365.16;5025530;28;45843;-75
2022/09/15 02:07:49;;;;;;;;;14.33;14.33;;;;;20.19;87.39;100382.19;5017653;28;45304;-74
2022/09/15 02:10:37;;;;;;;;;13.33;12.67;;;;;20.19;87.37;100390.28;5030479;28;46022;-75
2022/09/15 02:13:05;;;;;;;;;11.33;11.33;;;;;20.17;87.38;100376.22;5026142;28;45396;-75
2022/09/15 02:15:41;;;;;;;;;13.33;13.33;;;;;20.11;87.63;100366.44;5021206;28;45539;-75
2022/09/15 02:18:12;;;;;;;;;19.00;16.33;;;;;20.17;87.51;100373.50;5025651;28;47656;-75
2022/09/15 02:20:48;;;;;;;;;15.67;14.67;;;;;20.18;87.33;100389.44;5021220;28;45286;-75
2022/09/15 02:23:20;;;;;;;;;15.67;15.67;;;;;20.18;87.15;100377.84;5017500;28;45317;-74
2022/09/15 02:25:50;;;;;;;;;21.33;19.00;;;;;20.19;87.42;100384.88;5016042;28;46490;-74
2022/09/15 02:28:20;;;;;;;;;20.00;18.33;;;;;20.18;87.88;100384.06;5017236;28;47688;-75
2022/09/15 02:30:47;;;;;;;;;19.00;19.00;;;;;20.13;87.64;100380.47;5017336;28;45455;-74
2022/09/15 02:33:19;;;;;;;;;21.00;20.00;;;;;20.02;87.55;100376.81;5020686;28;45273;-75
2022/09/15 02:35:45;;;;;;;;;24.00;22.67;;;;;19.97;87.94;100368.63;5017091;28;45406;-74
2022/09/15 02:38:12;;;;;;;;;24.33;23.67;;;;;19.98;88.13;100373.75;5017173;28;45353;-75
2022/09/15 02:40:43;;;;;;;;;22.00;21.33;;;;;19.97;87.79;100374.00;5017242;28;45412;-75
2022/09/15 02:43:11;;;;;;;;;18.33;18.33;;;;;19.98;88.10;100378.31;5017206;28;45372;-76
2022/09/15 02:45:37;;;;;;;;;20.33;20.33;;;;;19.89;87.54;100370.66;5017138;28;45437;-75
2022/09/15 02:48:03;;;;;;;;;16.33;14.67;;;;;19.70;87.41;100380.06;5030187;28;47148;-74
2022/09/15 02:50:29;;;;;;;;;19.00;19.00;;;;;19.58;88.00;100377.44;5021803;28;45941;-74
2022/09/15 02:52:55;;;;;;;;;22.33;20.33;;;;;19.68;87.88;100388.38;5023779;28;45328;-75
2022/09/15 02:55:22;;;;;;;;;20.33;18.67;;;;;19.50;88.09;100374.09;5033552;28;46103;-74
2022/09/15 02:57:48;;;;;;;;;24.00;20.67;;;;;19.72;88.38;100394.91;5052387;28;48387;-74
2022/09/15 03:00:18;;;;;;;;;23.00;22.33;;;;;19.56;88.12;100388.47;5020406;28;45314;-75
2022/09/15 03:02:50;;;;;;;;;26.33;21.33;;;;;19.52;88.30;100390.81;5041233;28;45383;-75
2022/09/15 03:05:19;;;;;;;;;24.33;22.67;;;;;19.49;88.76;100385.09;5032176;28;46019;-74
2022/09/15 03:07:44;;;;;;;;;20.33;19.67;;;;;19.52;88.40;100382.72;5016748;28;45360;-74
2022/09/15 03:10:11;;;;;;;;;27.00;23.33;;;;;19.52;88.06;100388.13;5029369;28;45319;-74
2022/09/15 03:12:50;;;;;;;;;20.33;20.33;;;;;19.52;88.12;100380.03;5017335;28;45241;-74
2022/09/15 03:15:18;;;;;;;;;27.00;26.00;;;;;19.47;88.35;100385.34;5016779;28;45494;-74
2022/09/15 03:17:45;;;;;;;;;23.33;22.00;;;;;19.52;88.12;100388.13;5027844;28;45328;-75
2022/09/15 03:20:19;;;;;;;;;25.33;24.00;;;;;19.51;88.09;100396.44;5027977;28;45485;-74
2022/09/15 03:22:44;;;;;;;;;28.00;26.33;;;;;19.48;88.07;100391.56;5015448;28;45343;-74
2022/09/15 03:25:10;;;;;;;;;27.33;25.00;;;;;19.38;88.33;100384.91;5016572;28;45476;-74
2022/09/15 03:27:36;;;;;;;;;27.00;26.00;;;;;19.41;87.57;100397.09;5016610;28;45834;-75
2022/09/15 03:30:03;;;;;;;;;30.00;28.00;;;;;19.39;87.47;100397.31;5016875;28;45327;-74
2022/09/15 03:32:28;;;;;;;;;36.67;31.00;;;;;19.26;87.40;100379.59;5046257;28;45320;-75
2022/09/15 03:34:54;;;;;;;;;39.33;33.33;;;;;19.23;87.51;100390.84;5016727;28;45361;-75
2022/09/15 03:37:19;;;;;;;;;40.33;34.67;;;;;19.23;87.97;100388.16;5029055;28;47196;-75
2022/09/15 03:39:45;;;;;;;;;42.67;35.67;;;;;19.25;87.66;100387.91;5016449;28;45294;-74
2022/09/15 03:42:11;;;;;;;;;40.33;33.67;;;;;19.25;87.75;100386.03;5016545;28;45309;-74
2022/09/15 03:44:36;;;;;;;;;40.33;34.67;;;;;19.15;87.82;100375.06;5016323;28;45286;-74
2022/09/15 03:47:02;;;;;;;;;40.33;33.33;;;;;19.25;88.24;100394.09;5015928;28;46307;-74
2022/09/15 03:49:28;;;;;;;;;44.00;35.33;;;;;19.26;88.10;100389.53;5016090;28;45339;-74
2022/09/15 03:51:54;;;;;;;;;42.67;34.00;;;;;19.23;88.25;100387.31;5030424;28;45368;-74
2022/09/15 03:54:19;;;;;;;;;41.33;34.67;;;;;19.19;88.20;100373.53;5021283;28;46336;-74
2022/09/15 03:56:47;;;;;;;;;43.67;35.67;;;;;19.20;88.34;100377.84;5016349;28;46025;-74
2022/09/15 03:59:14;;;;;;;;;41.33;35.00;;;;;19.23;87.94;100396.22;5019661;28;45356;-75
2022/09/15 04:01:41;;;;;;;;;41.00;34.00;;;;;19.23;87.82;100390.03;5031312;28;45193;-74
2022/09/15 04:04:06;;;;;;;;;42.00;36.00;;;;;19.28;88.15;100396.31;5016151;28;45330;-75
2022/09/15 04:06:32;;;;;;;;;35.33;31.00;;;;;19.25;88.04;100390.59;5023823;28;47456;-74
2022/09/15 04:08:59;;;;;;;;;44.33;36.67;;;;;19.20;87.45;100387.81;5015821;28;45634;-74
2022/09/15 04:11:24;;;;;;;;;44.67;36.67;;;;;19.22;87.83;100388.41;5021918;28;45515;-74
2022/09/15 04:13:52;;;;;;;;;48.67;37.33;;;;;19.17;87.38;100386.41;5015747;28;45357;-74
2022/09/15 04:16:19;;;;;;;;;37.00;32.67;;;;;19.22;87.73;100394.59;5021583;28;46232;-74
2022/09/15 04:18:44;;;;;;;;;37.00;33.00;;;;;19.21;87.06;100402.94;5033810;28;45743;-74
2022/09/15 04:21:13;;;;;;;;;40.00;32.33;;;;;19.20;87.31;100398.59;5021507;28;45342;-75
2022/09/15 04:23:39;;;;;;;;;41.33;34.00;;;;;19.13;86.88;100394.16;5022560;28;45392;-74
2022/09/15 04:26:16;;;;;;;;;39.00;33.67;;;;;19.03;86.87;100394.75;5014158;28;47779;-74
2022/09/15 04:28:41;;;;;;;;;42.00;34.67;;;;;18.92;86.77;100393.72;5016000;28;45322;-74
2022/09/15 04:31:11;;;;;;;;;40.00;33.33;;;;;19.04;86.90;100414.44;5015752;28;45355;-75
2022/09/15 04:33:38;;;;;;;;;43.33;35.00;;;;;18.97;87.14;100405.69;5015273;28;46340;-74
2022/09/15 04:36:07;;;;;;;;;41.33;34.00;;;;;19.08;86.51;100420.16;5022113;28;45384;-75
2022/09/15 04:38:33;;;;;;;;;38.00;33.00;;;;;19.03;86.67;100410.91;5016016;28;45418;-75
2022/09/15 04:40:58;;;;;;;;;40.00;32.33;;;;;18.99;86.75;100408.94;5015871;28;45289;-74
2022/09/15 04:43:25;;;;;;;;;35.00;32.33;;;;;18.99;86.53;100411.63;5015544;28;45521;-74
2022/09/15 04:45:51;;;;;;;;;36.33;30.33;;;;;18.92;86.90;100411.78;4998009;28;48015;-74
2022/09/15 04:48:16;;;;;;;;;33.33;29.00;;;;;18.93;86.10;100418.78;5015397;28;45293;-76
2022/09/15 04:50:42;;;;;;;;;28.00;25.67;;;;;18.94;86.45;100412.34;5022101;28;45352;-74
2022/09/15 04:53:08;;;;;;;;;27.33;24.33;;;;;18.95;86.75;100421.25;5021315;28;45440;-74
2022/09/15 04:55:33;;;;;;;;;31.00;29.33;;;;;18.96;87.15;100414.78;5015435;28;45391;-74
2022/09/15 04:58:01;;;;;;;;;31.33;28.33;;;;;18.92;86.87;100415.25;5015311;28;45302;-74
2022/09/15 05:00:27;;;;;;;;;26.67;25.67;;;;;18.98;86.64;100429.66;5017206;28;45340;-74
2022/09/15 05:02:53;;;;;;;;;25.33;24.00;;;;;19.02;86.53;100435.38;5018276;28;45262;-74
2022/09/15 05:05:18;;;;;;;;;22.67;22.00;;;;;19.02;86.88;100436.22;5018306;28;45269;-74
2022/09/15 05:07:45;;;;;;;;;22.67;20.67;;;;;18.96;86.92;100426.38;5025240;28;45944;-75
2022/09/15 05:10:11;;;;;;;;;20.00;18.00;;;;;18.94;86.46;100433.88;5023909;28;45300;-74
2022/09/15 05:12:37;;;;;;;;;23.00;20.33;;;;;18.96;86.43;100442.53;5018383;28;45428;-75
2022/09/15 05:15:03;;;;;;;;;19.33;17.00;;;;;18.99;86.25;100442.06;5025618;28;46956;-74
2022/09/15 05:17:34;;;;;;;;;14.67;12.00;;;;;18.91;86.00;100432.50;5029570;28;45441;-74
2022/09/15 05:19:59;;;;;;;;;17.67;17.00;;;;;18.99;85.92;100444.75;5024952;28;45302;-74
2022/09/15 05:22:25;;;;;;;;;17.00;15.67;;;;;19.00;85.41;100454.47;5018072;28;45393;-74
2022/09/15 05:24:51;;;;;;;;;11.67;11.00;;;;;19.00;85.46;100445.56;5018004;28;45328;-75
2022/09/15 05:27:17;;;;;;;;;16.00;13.67;;;;;19.01;85.28;100445.31;5017991;28;45199;-74
2022/09/15 05:29:42;;;;;;;;;15.67;14.33;;;;;18.95;85.19;100448.16;5018560;28;45410;-74
2022/09/15 05:32:08;;;;;;;;;13.33;13.33;;;;;19.03;85.33;100461.25;5026507;28;46104;-74
2022/09/15 05:34:33;;;;;;;;;13.00;12.67;;;;;19.01;85.17;100466.88;5017935;28;48646;-74
2022/09/15 05:36:58;;;;;;;;;15.00;15.00;;;;;18.92;85.13;100454.84;5027750;28;45369;-75
2022/09/15 05:39:24;;;;;;;;;14.33;14.33;;;;;18.97;85.26;100465.72;5033145;28;45437;-74
2022/09/15 05:41:49;;;;;;;;;18.33;17.00;;;;;19.02;84.76;100482.00;5022218;28;47154;-76
2022/09/15 05:44:15;;;;;;;;;19.33;17.67;;;;;19.03;84.57;100486.31;5017856;28;48748;-74
2022/09/15 05:46:41;;;;;;;;;20.00;19.33;;;;;18.97;84.81;100492.63;5018100;28;45402;-74
2022/09/15 05:49:07;;;;;;;;;21.67;19.33;;;;;18.96;84.85;100479.41;5017941;28;45265;-74
2022/09/15 05:51:33;;;;;;;;;17.33;17.00;;;;;18.89;84.51;100479.56;5031749;28;45483;-75
2022/09/15 05:53:58;;;;;;;;;20.67;19.67;;;;;18.90;84.18;100489.25;5017553;28;47001;-75
2022/09/15 05:56:24;;;;;;;;;27.00;24.00;;;;;18.77;84.00;100483.06;5029517;28;45283;-75
2022/09/15 05:58:49;;;;;;;;;22.33;22.33;;;;;18.73;83.78;100489.97;5018986;28;45318;-74
2022/09/15 06:01:16;;;;;;;;;22.33;22.33;;;;;18.70;84.08;100490.44;5024889;28;45671;-74
2022/09/15 06:03:41;;;;;;;;;28.00;27.33;;;;;18.62;83.96;100488.13;5019387;28;46990;-76
2022/09/15 06:06:07;;;;;;;;;26.67;25.33;;;;;18.58;84.24;100489.66;5023214;28;45483;-75
2022/09/15 06:08:35;;;;;;;;;23.33;23.00;;;;;18.58;83.74;100487.75;5032947;28;45314;-75
2022/09/15 06:11:05;;;;;;;;;27.33;24.67;;;;;18.64;84.32;100494.06;5017067;28;45390;-76
2022/09/15 06:13:31;;;;;;;;;25.00;23.67;;;;;18.64;84.09;100494.91;5020162;28;45409;-76
2022/09/15 06:16:01;;;;;;;;;26.00;25.67;;;;;18.61;84.67;100491.84;5021930;28;45409;-76
2022/09/15 06:18:26;;;;;;;;;23.67;23.33;;;;;18.61;84.45;100492.69;5031121;28;45718;-77
2022/09/15 06:20:51;;;;;;;;;25.67;22.67;;;;;18.64;83.88;100513.75;5027085;28;46043;-78
2022/09/15 06:23:17;;;;;;;;;23.00;23.00;;;;;18.58;84.01;100511.97;5020187;28;48014;-76
2022/09/15 06:25:43;;;;;;;;;23.33;21.67;;;;;18.49;83.81;100511.50;5017871;28;45349;-78
2022/09/15 06:28:08;;;;;;;;;27.67;25.33;;;;;18.48;83.92;100517.94;5017645;28;45367;-78
2022/09/15 06:30:33;;;;;;;;;29.00;25.00;;;;;18.40;83.65;100510.22;5017534;28;45341;-78
2022/09/15 06:32:59;;;;;;;;;32.33;28.00;;;;;18.33;83.88;100520.25;5017517;28;45336;-76
2022/09/15 06:35:24;;;;;;;;;27.33;25.00;;;;;18.31;83.97;100520.50;5017406;28;45303;-77
2022/09/15 06:37:49;;;;;;;;;25.00;24.00;;;;;18.27;83.76;100525.53;5017525;28;45402;-75
2022/09/15 06:40:15;;;;;;;;;29.67;27.00;;;;;18.29;84.27;100544.13;5024170;28;45452;-76
2022/09/15 06:42:40;;;;;;;;;30.00;27.67;;;;;18.32;84.48;100540.16;5018642;28;47095;-75
2022/09/15 06:45:06;;;;;;;;;28.33;25.67;;;;;18.36;84.48;100538.63;5020629;28;45224;-78
2022/09/15 06:47:32;;;;;;;;;29.33;28.33;;;;;18.38;84.28;100547.31;5017662;28;45251;-77
2022/09/15 06:49:58;;;;;;;;;38.67;30.67;;;;;18.38;84.13;100540.03;5029273;28;46237;-76
2022/09/15 06:52:24;;;;;;;;;34.67;31.00;;;;;18.34;83.41;100541.56;5029129;28;46107;-78
2022/09/15 06:54:49;;;;;;;;;38.67;30.67;;;;;18.34;83.72;100543.41;5026116;28;45349;-78
2022/09/15 06:57:14;;;;;;;;;37.33;31.00;;;;;18.34;83.61;100554.16;5017319;28;45282;-77
2022/09/15 06:59:40;;;;;;;;;27.33;26.00;;;;;18.33;83.61;100553.38;5016820;28;45527;-77
2022/09/15 07:02:05;;;;;;;;;33.67;31.00;;;;;18.29;83.56;100546.81;5017095;28;45359;-78
2022/09/15 07:04:33;;;;;;;;;35.67;31.33;;;;;18.24;82.84;100558.25;5027507;27;45701;-78
2022/09/15 07:06:58;;;;;;;;;34.67;31.33;;;;;18.18;83.54;100551.13;5030624;28;45410;-77
2022/09/15 07:09:23;;;;;;;;;36.33;31.67;;;;;18.15;83.22;100556.94;5016477;28;48699;-78
2022/09/15 07:11:48;;;;;;;;;42.67;34.00;;;;;18.12;82.92;100555.53;5018439;28;45423;-78
2022/09/15 07:14:14;;;;;;;;;34.33;29.67;;;;;18.18;83.23;100567.25;5016767;28;45155;-78
2022/09/15 07:16:39;;;;;;;;;35.67;31.67;;;;;18.20;83.68;100575.91;5025889;28;45413;-78
2022/09/15 07:19:04;;;;;;;;;31.67;30.00;;;;;18.14;83.13;100574.94;5028895;28;46119;-78
2022/09/15 07:21:30;;;;;;;;;38.33;33.00;;;;;18.11;83.22;100579.97;5021163;28;45609;-79
2022/09/15 07:23:56;;;;;;;;;42.00;33.00;;;;;18.19;83.25;100587.72;5016652;28;45509;-77
2022/09/15 07:26:24;;;;;;;;;41.67;33.00;;;;;18.25;83.21;100588.66;5015938;28;45330;-77
2022/09/15 07:28:56;;;;;;;;;40.00;34.00;;;;;18.27;82.86;100594.63;5017271;28;45420;-77
2022/09/15 07:31:24;;;;;;;;;35.67;31.00;;;;;18.32;nan;100597.47;5015814;28;45522;-77
2022/09/15 07:33:49;;;;;;;;;36.00;31.00;;;;;18.32;83.09;100592.09;5016089;28;46894;-76
2022/09/15 07:36:16;;;;;;;;;42.33;36.33;;;;;18.35;82.45;100596.19;5016117;28;45644;-77
2022/09/15 07:38:44;;;;;;;;;40.67;33.67;;;;;18.34;82.44;100591.84;5015361;28;45962;-77
2022/09/15 07:41:15;;;;;;;;;42.67;35.33;;;;;18.37;82.59;100596.75;5016560;28;46239;-76
2022/09/15 07:43:45;;;;;;;;;43.00;36.67;;;;;18.33;81.85;100596.41;5016892;28;45369;-77
2022/09/15 07:46:10;;;;;;;;;39.67;34.00;;;;;18.35;82.45;100591.59;5035590;28;45475;-77
2022/09/15 07:48:36;;;;;;;;;37.33;33.33;;;;;18.35;81.93;100596.19;5025020;28;45500;-76
2022/09/15 07:51:01;;;;;;;;;39.67;33.00;;;;;18.34;81.98;100598.03;5029013;28;47183;-77
2022/09/15 07:53:28;;;;;;;;;37.00;33.00;;;;;18.40;82.01;100597.13;5017077;28;45407;-76
2022/09/15 07:55:54;;;;;;;;;41.00;34.00;;;;;18.38;81.93;100596.53;5017563;28;45405;-76
2022/09/15 07:58:21;;;;;;;;;40.33;31.33;;;;;18.42;81.98;100599.59;5017522;28;45364;-77
2022/09/15 08:00:46;;;;;;;;;35.67;31.33;;;;;18.46;81.83;100600.75;5017430;28;46462;-75
2022/09/15 08:03:12;;;;;;;;;34.67;31.00;;;;;18.49;82.18;100600.31;5028028;28;45468;-75
2022/09/15 08:05:38;;;;;;;;;40.33;33.67;;;;;18.61;82.07;100608.41;5018538;28;45327;-76
2022/09/15 08:08:04;;;;;;;;;33.00;30.00;;;;;18.71;82.05;100612.41;5015494;28;45776;-76
2022/09/15 08:10:30;;;;;;;;;32.00;28.67;;;;;18.68;81.98;100605.63;5018076;28;45537;-76
2022/09/15 08:12:57;;;;;;;;;32.67;30.67;;;;;18.73;81.67;100610.28;5025777;28;45348;-77
2022/09/15 08:15:23;;;;;;;;;26.00;24.33;;;;;18.79;81.55;100607.50;5022767;28;45528;-77
2022/09/15 08:17:49;;;;;;;;;53.33;44.00;;;;;18.92;81.62;100619.09;5035057;28;46185;-77
2022/09/15 08:20:14;;;;;;;;;43.33;36.00;;;;;18.98;81.06;100628.09;5033491;28;47548;-76
2022/09/15 08:22:41;;;;;;;;;63.50;51.25;;;;;19.01;81.28;100622.25;5022199;28;45414;-77
2022/09/15 08:25:07;;;;;;;;;55.67;44.00;;;;;19.09;80.97;100624.63;5021156;28;45223;-77
2022/09/15 08:27:32;;;;;;;;;42.00;35.67;;;;;19.26;80.21;100640.06;5019836;28;45523;-77
2022/09/15 08:29:58;;;;;;;;;37.33;31.00;;;;;19.28;79.89;100627.19;5029750;28;47128;-77
2022/09/15 08:32:23;;;;;;;;;41.33;33.67;;;;;19.39;79.80;100636.31;5022309;28;45333;-77
2022/09/15 08:34:48;;;;;;;;;32.33;29.33;;;;;19.42;79.60;100642.06;5028771;28;45267;-77
2022/09/15 08:37:15;;;;;;;;;34.33;31.00;;;;;19.40;78.83;100638.78;5025030;28;45224;-77
2022/09/15 08:39:40;;;;;;;;;45.00;37.67;;;;;19.40;79.89;100638.78;5019936;28;45476;-77
2022/09/15 08:42:12;;;;;;;;;26.00;25.00;;;;;19.51;79.41;100650.59;5018463;28;45499;-77
2022/09/15 08:44:47;;;;;;;;;32.00;29.67;;;;;19.52;80.26;100640.66;5019926;28;45412;-77
2022/09/15 08:47:22;;;;;;;;;30.00;28.00;;;;;19.64;79.60;100646.00;5024576;28;45132;-77
2022/09/15 08:50:06;;;;;;;;;21.00;20.67;;;;;19.76;78.70;100646.81;5019068;28;46514;-77
2022/09/15 08:53:08;;;;;;;;;24.33;24.33;;;;;19.95;77.84;100657.41;5018326;28;45384;-77
2022/09/15 08:55:45;;;;;;;;;21.00;21.00;;;;;19.95;76.36;100643.94;5022904;28;45408;-77
2022/09/15 08:58:17;;;;;;;;;20.67;20.33;;;;;19.99;76.09;100649.69;5024776;28;45397;-76
2022/09/15 09:00:45;;;;;;;;;23.00;17.00;;;;;20.06;75.76;100659.28;5019163;28;45538;-77
2022/09/15 09:03:20;;;;;;;;;21.00;19.67;;;;;20.21;75.32;100660.66;5017196;28;45441;-76
2022/09/15 09:06:13;;;;;;;;;15.33;15.00;;;;;20.27;74.83;100658.88;5019009;28;45463;-76
2022/09/15 09:08:54;;;;;;;;;16.00;16.00;;;;;20.47;74.89;100663.78;5019218;28;45307;-76
2022/09/15 09:11:48;;;;;;;;;19.67;18.33;;;;;20.50;74.17;100662.50;5027669;28;46953;-77
2022/09/15 09:14:23;;;;;;;;;19.00;15.33;;;;;20.68;73.69;100675.78;5040064;28;45264;-77
2022/09/15 09:17:11;;;;;;;;;14.33;13.67;;;;;20.80;73.44;100672.19;5040139;28;45450;-79
2022/09/15 09:19:56;;;;;;;;;13.33;13.33;;;;;20.86;73.15;100671.19;5020540;28;45580;-77
2022/09/15 09:22:29;;;;;;;;;17.33;16.00;;;;;20.97;72.04;100657.88;5021468;28;46355;-77
2022/09/15 09:24:56;;;;;;;;;15.33;14.33;;;;;21.08;72.25;100658.88;5024407;28;45356;-78
2022/09/15 09:27:27;;;;;;;;;17.67;14.00;;;;;21.21;72.84;100665.81;5033654;28;45219;-77
2022/09/15 09:30:02;;;;;;;;;13.00;12.33;;;;;21.29;72.08;100658.13;5026729;28;45473;-76
2022/09/15 09:32:44;;;;;;;;;19.67;16.67;;;;;21.48;72.61;100657.00;5035351;28;46279;-77
2022/09/15 09:35:16;;;;;;;;;23.00;22.67;;;;;21.62;72.04;100660.16;5030199;28;45446;-76
2022/09/15 09:37:41;;;;;;;;;19.00;19.00;;;;;21.66;71.58;100645.88;5022536;28;45157;-76
2022/09/15 09:40:13;;;;;;;;;15.33;15.33;;;;;21.79;71.24;100655.53;5019031;28;46012;-76
2022/09/15 09:42:38;;;;;;;;;17.33;15.33;;;;;21.88;68.73;100646.97;5041209;28;47338;-77
2022/09/15 09:45:06;;;;;;;;;13.33;12.00;;;;;21.96;68.52;100660.03;5031235;28;45352;-77
2022/09/15 09:47:33;;;;;;;;;14.67;13.00;;;;;21.92;68.18;100642.69;5019505;28;45303;-76
2022/09/15 09:49:59;;;;;;;;;12.00;12.00;;;;;22.10;70.36;100656.94;5019430;28;45548;-79
2022/09/15 09:52:33;;;;;;;;;10.00;9.67;;;;;22.22;69.09;100664.91;5029838;28;46151;-79
2022/09/15 09:55:17;;;;;;;;;11.00;11.00;;;;;22.32;68.06;100673.97;5017689;28;45400;-77
2022/09/15 09:57:42;;;;;;;;;9.00;8.33;;;;;22.30;66.71;100669.91;5026129;28;45473;-78
2022/09/15 10:00:32;;;;;;;;;7.67;7.67;;;;;22.39;67.78;100662.91;5021765;28;45311;-78
2022/09/15 10:03:09;;;;;;;;;7.00;6.67;;;;;22.50;67.51;100668.44;5017722;28;45540;-76
2022/09/15 10:05:35;;;;;;;;;6.67;6.67;;;;;22.50;66.66;100665.72;5017661;28;45345;-78
2022/09/15 10:08:01;;;;;;;;;10.00;9.67;;;;;22.53;65.88;100663.34;5017698;28;45956;-81
2022/09/15 10:10:31;;;;;;;;;8.67;8.67;;;;;22.48;66.29;100649.75;5018213;28;45625;-78
2022/09/15 10:12:57;;;;;;;;;7.00;7.00;;;;;22.55;66.27;100661.19;5017345;28;46559;-80
2022/09/15 10:15:26;;;;;;;;;6.33;6.33;;;;;22.58;65.45;100665.31;5016173;28;45508;-78
2022/09/15 10:17:54;;;;;;;;;4.67;4.67;;;;;22.52;64.41;100661.72;5029158;28;45304;-78
2022/09/15 10:20:27;;;;;;;;;5.67;5.00;;;;;22.61;65.67;100674.81;5030282;28;46074;-80
2022/09/15 10:23:01;;;;;;;;;6.00;5.00;;;;;22.69;66.45;100671.63;5030128;28;46357;-80
2022/09/15 10:25:30;;;;;;;;;3.67;3.67;;;;;22.75;65.29;100667.91;5031097;28;45335;-76
2022/09/15 10:28:10;;;;;;;;;15.00;15.00;;;;;22.96;63.92;100665.34;5035511;28;45359;-77
2022/09/15 10:30:37;;;;;;;;;56.75;44.50;;;;;23.02;63.34;100668.91;5055333;27;46244;-79
2022/09/15 10:33:23;;;;;;;;;42.33;34.33;;;;;23.10;63.67;100656.75;5062275;28;47139;-81
2022/09/15 10:35:49;;;;;;;;;10.33;9.00;;;;;23.12;62.20;100641.88;5039891;28;45427;-77
2022/09/15 10:38:20;;;;;;;;;9.67;9.67;;;;;23.28;63.41;100659.03;5032197;28;45387;-78
2022/09/15 10:41:05;;;;;;;;;35.00;31.33;;;;;23.38;62.65;100644.78;5044047;28;45299;-78
2022/09/15 10:43:49;;;;;;;;;13.67;13.67;;;;;23.51;62.25;100659.75;5050826;28;45988;-80
2022/09/15 10:46:26;;;;;;;;;8.00;6.67;;;;;23.50;62.44;100647.25;5032432;28;46142;-80
2022/09/15 10:49:25;;;;;;;;;5.33;5.33;;;;;23.57;62.00;100647.00;5018556;28;45452;-81
2022/09/15 10:52:11;;;;;;;;;5.33;5.33;;;;;23.57;62.00;100657.84;5038209;28;46404;-81
2022/09/15 10:55:18;;;;;;;;;5.00;5.00;;;;;23.56;61.17;100658.94;5031407;28;47119;-80
2022/09/15 10:58:00;;;;;;;;;4.00;4.00;;;;;23.54;60.22;100661.09;5048988;28;45987;-81
2022/09/15 11:00:39;;;;;;;;;7.00;7.00;;;;;23.45;60.86;100658.91;5052913;28;45377;-80
2022/09/15 11:03:25;;;;;;;;;5.00;4.00;;;;;23.38;60.38;100649.38;5026611;28;45350;-81
2022/09/15 11:05:56;;;;;;;;;3.00;3.00;;;;;23.47;60.38;100658.63;5019219;28;47335;-78
2022/09/15 11:08:34;;;;;;;;;5.00;4.00;;;;;23.47;59.45;100657.81;5016677;28;45596;-79
2022/09/15 11:11:12;;;;;;;;;4.00;4.00;;;;;23.45;59.54;100663.50;5017544;28;45333;-78
2022/09/15 11:14:16;;;;;;;;;5.67;5.67;;;;;23.47;59.74;100663.22;5016989;28;45149;-79
2022/09/15 11:17:00;;;;;;;;;5.00;4.33;;;;;23.43;59.94;100665.66;5029084;28;46265;-78
2022/09/15 11:19:37;;;;;;;;;4.00;4.00;;;;;23.43;60.00;100660.22;5021786;28;45401;-78
2022/09/15 11:22:27;;;;;;;;;5.00;5.00;;;;;23.47;59.12;100652.38;5017841;28;45395;-78
2022/09/15 11:24:59;;;;;;;;;6.00;6.00;;;;;23.49;59.52;100648.31;5020621;28;45465;-78